sensor_id;sensor_type;location;lat;lon;timestamp;pressure;altitude;pressure_sealevel;temperature;humidity
56582;BME280;42463;52.214;21.238;2023-04-26T00:00:17;99498.05;;;10.57;67.85
56582;BME280;42463;52.214;21.238;2023-04-26T00:02:40;99499.52;;;10.56;67.78
56582;BME280;42463;52.214;21.238;2023-04-26T00:04:43;99500.11;;;10.56;67.92
56582;BME280;42463;52.214;21.238;2023-04-26T00:06:47;99501.47;;;10.56;67.67
56582;BME280;42463;52.214;21.238;2023-04-26T00:08:49;99499.85;;;10.54;67.77
56582;BME280;42463;52.214;21.238;2023-04-26T00:10:52;99499.80;;;10.53;67.82
56582;BME280;42463;52.214;21.238;2023-04-26T00:12:55;99505.16;;;10.54;67.81
56582;BME280;42463;52.214;21.238;2023-04-26T00:14:58;99504.95;;;10.54;67.89
56582;BME280;42463;52.214;21.238;2023-04-26T00:17:01;99506.14;;;10.52;67.69
56582;BME280;42463;52.214;21.238;2023-04-26T00:19:04;99505.88;;;10.50;67.67
56582;BME280;42463;52.214;21.238;2023-04-26T00:21:07;99508.98;;;10.48;67.82
56582;BME280;42463;52.214;21.238;2023-04-26T00:23:10;99508.23;;;10.47;67.90
56582;BME280;42463;52.214;21.238;2023-04-26T00:25:13;99507.36;;;10.45;67.90
56582;BME280;42463;52.214;21.238;2023-04-26T00:27:16;99506.45;;;10.42;68.00
56582;BME280;42463;52.214;21.238;2023-04-26T00:29:19;99507.05;;;10.41;68.04
56582;BME280;42463;52.214;21.238;2023-04-26T00:31:22;99510.34;;;10.40;68.19
56582;BME280;42463;52.214;21.238;2023-04-26T00:33:25;99511.11;;;10.40;68.03
56582;BME280;42463;52.214;21.238;2023-04-26T00:35:28;99510.34;;;10.38;68.12
56582;BME280;42463;52.214;21.238;2023-04-26T00:37:31;99514.29;;;10.36;68.22
56582;BME280;42463;52.214;21.238;2023-04-26T00:39:34;99519.17;;;10.34;68.06
56582;BME280;42463;52.214;21.238;2023-04-26T00:41:37;99515.11;;;10.33;68.31
56582;BME280;42463;52.214;21.238;2023-04-26T00:43:40;99519.45;;;10.34;68.46
56582;BME280;42463;52.214;21.238;2023-04-26T00:45:43;99519.23;;;10.33;68.45
56582;BME280;42463;52.214;21.238;2023-04-26T00:47:46;99519.56;;;10.31;68.26
56582;BME280;42463;52.214;21.238;2023-04-26T00:49:49;99533.77;;;10.29;68.22
56582;BME280;42463;52.214;21.238;2023-04-26T00:51:52;99534.27;;;10.27;68.33
56582;BME280;42463;52.214;21.238;2023-04-26T00:53:56;99536.88;;;10.22;68.38
56582;BME280;42463;52.214;21.238;2023-04-26T00:55:59;99546.23;;;10.18;68.24
56582;BME280;42463;52.214;21.238;2023-04-26T00:58:02;99548.84;;;10.15;68.24
56582;BME280;42463;52.214;21.238;2023-04-26T01:03:12;99554.75;;;10.07;68.34
56582;BME280;42463;52.214;21.238;2023-04-26T01:05:15;99559.03;;;10.02;68.27
56582;BME280;42463;52.214;21.238;2023-04-26T01:07:20;99559.95;;;9.99;68.24
56582;BME280;42463;52.214;21.238;2023-04-26T01:09:22;99571.44;;;9.96;68.08
56582;BME280;42463;52.214;21.238;2023-04-26T01:11:26;99571.17;;;9.96;68.27
56582;BME280;42463;52.214;21.238;2023-04-26T01:13:28;99575.30;;;9.94;68.28
56582;BME280;42463;52.214;21.238;2023-04-26T01:15:33;99571.23;;;9.90;68.18
56582;BME280;42463;52.214;21.238;2023-04-26T01:17:37;99575.13;;;9.90;68.42
56582;BME280;42463;52.214;21.238;2023-04-26T01:19:47;99580.38;;;9.87;68.39
56582;BME280;42463;52.214;21.238;2023-04-26T01:21:50;99579.08;;;9.84;67.94
56582;BME280;42463;52.214;21.238;2023-04-26T01:23:52;99583.35;;;9.78;67.22
56582;BME280;42463;52.214;21.238;2023-04-26T01:25:55;99578.04;;;9.72;67.05
56582;BME280;42463;52.214;21.238;2023-04-26T01:27:58;99581.49;;;9.68;66.74
56582;BME280;42463;52.214;21.238;2023-04-26T01:30:01;99576.45;;;9.65;66.91
56582;BME280;42463;52.214;21.238;2023-04-26T01:32:06;99580.08;;;9.64;66.81
56582;BME280;42463;52.214;21.238;2023-04-26T01:34:09;99580.68;;;9.61;66.52
56582;BME280;42463;52.214;21.238;2023-04-26T01:36:12;99580.46;;;9.59;66.49
56582;BME280;42463;52.214;21.238;2023-04-26T01:38:15;99579.64;;;9.58;66.51
56582;BME280;42463;52.214;21.238;2023-04-26T01:40:19;99581.10;;;9.58;66.56
56582;BME280;42463;52.214;21.238;2023-04-26T01:42:22;99585.92;;;9.58;66.67
56582;BME280;42463;52.214;21.238;2023-04-26T01:44:25;99585.77;;;9.59;66.55
56582;BME280;42463;52.214;21.238;2023-04-26T01:46:28;99585.71;;;9.60;66.51
56582;BME280;42463;52.214;21.238;2023-04-26T01:48:30;99583.88;;;9.61;66.45
56582;BME280;42463;52.214;21.238;2023-04-26T01:50:36;99586.37;;;9.62;66.18
56582;BME280;42463;52.214;21.238;2023-04-26T01:52:39;99588.05;;;9.62;66.20
56582;BME280;42463;52.214;21.238;2023-04-26T01:54:45;99596.27;;;9.61;66.19
56582;BME280;42463;52.214;21.238;2023-04-26T01:56:48;99603.75;;;9.61;66.16
56582;BME280;42463;52.214;21.238;2023-04-26T01:58:51;99605.04;;;9.60;66.29
56582;BME280;42463;52.214;21.238;2023-04-26T02:00:54;99604.17;;;9.60;66.29
56582;BME280;42463;52.214;21.238;2023-04-26T02:02:57;99607.10;;;9.59;66.41
56582;BME280;42463;52.214;21.238;2023-04-26T02:04:59;99604.39;;;9.58;66.21
56582;BME280;42463;52.214;21.238;2023-04-26T02:07:02;99601.52;;;9.58;66.45
56582;BME280;42463;52.214;21.238;2023-04-26T02:09:05;99605.20;;;9.58;66.18
56582;BME280;42463;52.214;21.238;2023-04-26T02:11:10;99603.68;;;9.58;66.16
56582;BME280;42463;52.214;21.238;2023-04-26T02:13:14;99606.98;;;9.56;66.03
56582;BME280;42463;52.214;21.238;2023-04-26T02:15:17;99605.91;;;9.55;65.93
56582;BME280;42463;52.214;21.238;2023-04-26T02:17:20;99612.61;;;9.54;66.09
56582;BME280;42463;52.214;21.238;2023-04-26T02:19:24;99611.05;;;9.53;66.03
56582;BME280;42463;52.214;21.238;2023-04-26T02:21:27;99614.88;;;9.52;66.12
56582;BME280;42463;52.214;21.238;2023-04-26T02:23:32;99614.71;;;9.49;66.24
56582;BME280;42463;52.214;21.238;2023-04-26T02:25:35;99616.11;;;9.47;66.30
56582;BME280;42463;52.214;21.238;2023-04-26T02:27:37;99617.03;;;9.45;66.21
56582;BME280;42463;52.214;21.238;2023-04-26T02:29:40;99618.06;;;9.45;66.39
56582;BME280;42463;52.214;21.238;2023-04-26T02:31:43;99621.63;;;9.45;66.52
56582;BME280;42463;52.214;21.238;2023-04-26T02:33:48;99617.95;;;9.44;66.18
56582;BME280;42463;52.214;21.238;2023-04-26T02:35:51;99614.32;;;9.42;66.31
56582;BME280;42463;52.214;21.238;2023-04-26T02:37:54;99611.61;;;9.41;66.32
56582;BME280;42463;52.214;21.238;2023-04-26T02:39:57;99609.23;;;9.41;66.45
56582;BME280;42463;52.214;21.238;2023-04-26T02:42:00;99605.70;;;9.40;66.58
56582;BME280;42463;52.214;21.238;2023-04-26T02:44:04;99610.09;;;9.40;66.71
56582;BME280;42463;52.214;21.238;2023-04-26T02:46:07;99612.09;;;9.40;66.62
56582;BME280;42463;52.214;21.238;2023-04-26T02:48:10;99611.60;;;9.38;66.49
56582;BME280;42463;52.214;21.238;2023-04-26T02:50:13;99615.77;;;9.39;66.42
56582;BME280;42463;52.214;21.238;2023-04-26T02:52:15;99614.39;;;9.37;66.42
56582;BME280;42463;52.214;21.238;2023-04-26T02:54:18;99607.15;;;9.37;66.40
56582;BME280;42463;52.214;21.238;2023-04-26T02:56:21;99607.95;;;9.37;66.45
56582;BME280;42463;52.214;21.238;2023-04-26T02:58:24;99608.35;;;9.38;66.40
56582;BME280;42463;52.214;21.238;2023-04-26T03:00:27;99608.11;;;9.37;66.45
56582;BME280;42463;52.214;21.238;2023-04-26T03:02:30;99609.86;;;9.38;66.38
56582;BME280;42463;52.214;21.238;2023-04-26T03:04:33;99607.64;;;9.37;66.40
56582;BME280;42463;52.214;21.238;2023-04-26T03:06:37;99607.31;;;9.37;66.44
56582;BME280;42463;52.214;21.238;2023-04-26T03:08:40;99610.45;;;9.38;66.33
56582;BME280;42463;52.214;21.238;2023-04-26T03:10:44;99611.16;;;9.38;66.35
56582;BME280;42463;52.214;21.238;2023-04-26T03:12:47;99612.02;;;9.37;66.53
56582;BME280;42463;52.214;21.238;2023-04-26T03:14:50;99611.20;;;9.37;66.62
56582;BME280;42463;52.214;21.238;2023-04-26T03:16:53;99611.81;;;9.37;66.69
56582;BME280;42463;52.214;21.238;2023-04-26T03:18:56;99616.80;;;9.39;66.66
56582;BME280;42463;52.214;21.238;2023-04-26T03:20:59;99617.88;;;9.40;66.75
56582;BME280;42463;52.214;21.238;2023-04-26T03:23:02;99616.16;;;9.41;66.69
56582;BME280;42463;52.214;21.238;2023-04-26T03:25:07;99618.16;;;9.43;66.88
56582;BME280;42463;52.214;21.238;2023-04-26T03:27:10;99624.23;;;9.46;66.98
56582;BME280;42463;52.214;21.238;2023-04-26T03:29:13;99621.15;;;9.46;66.80
56582;BME280;42463;52.214;21.238;2023-04-26T03:31:16;99620.98;;;9.47;66.88
56582;BME280;42463;52.214;21.238;2023-04-26T03:33:20;99620.98;;;9.47;66.66
56582;BME280;42463;52.214;21.238;2023-04-26T03:35:23;99625.48;;;9.46;66.68
56582;BME280;42463;52.214;21.238;2023-04-26T03:37:26;99625.10;;;9.45;66.81
56582;BME280;42463;52.214;21.238;2023-04-26T03:39:34;99625.80;;;9.45;66.91
56582;BME280;42463;52.214;21.238;2023-04-26T03:41:37;99629.64;;;9.45;66.94
56582;BME280;42463;52.214;21.238;2023-04-26T03:43:41;99630.18;;;9.45;66.98
56582;BME280;42463;52.214;21.238;2023-04-26T03:45:46;99627.27;;;9.44;67.01
56582;BME280;42463;52.214;21.238;2023-04-26T03:47:50;99627.09;;;9.45;67.22
56582;BME280;42463;52.214;21.238;2023-04-26T03:49:53;99628.56;;;9.46;67.18
56582;BME280;42463;52.214;21.238;2023-04-26T03:51:55;99633.44;;;9.46;67.08
56582;BME280;42463;52.214;21.238;2023-04-26T03:53:59;99631.32;;;9.46;67.13
56582;BME280;42463;52.214;21.238;2023-04-26T03:56:01;99631.27;;;9.46;67.04
56582;BME280;42463;52.214;21.238;2023-04-26T03:58:05;99634.52;;;9.45;67.35
56582;BME280;42463;52.214;21.238;2023-04-26T04:00:12;99629.54;;;9.45;67.36
56582;BME280;42463;52.214;21.238;2023-04-26T04:02:19;99626.56;;;9.46;67.45
56582;BME280;42463;52.214;21.238;2023-04-26T04:04:22;99628.30;;;9.48;67.49
56582;BME280;42463;52.214;21.238;2023-04-26T04:06:25;99627.16;;;9.51;67.42
56582;BME280;42463;52.214;21.238;2023-04-26T04:08:28;99630.33;;;9.54;67.63
56582;BME280;42463;52.214;21.238;2023-04-26T04:10:31;99630.70;;;9.55;67.52
56582;BME280;42463;52.214;21.238;2023-04-26T04:12:34;99629.73;;;9.54;67.41
56582;BME280;42463;52.214;21.238;2023-04-26T04:14:37;99630.69;;;9.53;67.34
56582;BME280;42463;52.214;21.238;2023-04-26T04:16:41;99629.83;;;9.53;67.34
56582;BME280;42463;52.214;21.238;2023-04-26T04:18:44;99632.54;;;9.52;67.52
56582;BME280;42463;52.214;21.238;2023-04-26T04:20:47;99634.10;;;9.52;67.46
56582;BME280;42463;52.214;21.238;2023-04-26T04:22:50;99636.11;;;9.53;67.36
56582;BME280;42463;52.214;21.238;2023-04-26T04:24:53;99638.11;;;9.52;67.06
56582;BME280;42463;52.214;21.238;2023-04-26T04:26:56;99637.03;;;9.49;67.08
56582;BME280;42463;52.214;21.238;2023-04-26T04:28:59;99636.95;;;9.47;67.27
56582;BME280;42463;52.214;21.238;2023-04-26T04:31:10;99641.89;;;9.46;66.93
56582;BME280;42463;52.214;21.238;2023-04-26T04:33:13;99639.12;;;9.44;66.87
56582;BME280;42463;52.214;21.238;2023-04-26T04:35:16;99641.11;;;9.44;66.84
56582;BME280;42463;52.214;21.238;2023-04-26T04:37:19;99642.80;;;9.47;66.83
56582;BME280;42463;52.214;21.238;2023-04-26T04:39:24;99640.37;;;9.46;66.42
56582;BME280;42463;52.214;21.238;2023-04-26T04:41:26;99644.85;;;9.43;66.13
56582;BME280;42463;52.214;21.238;2023-04-26T04:43:30;99646.15;;;9.43;66.00
56582;BME280;42463;52.214;21.238;2023-04-26T04:45:32;99648.86;;;9.44;65.93
56582;BME280;42463;52.214;21.238;2023-04-26T04:47:37;99649.30;;;9.43;65.28
56582;BME280;42463;52.214;21.238;2023-04-26T04:49:41;99653.89;;;9.42;65.42
56582;BME280;42463;52.214;21.238;2023-04-26T04:51:43;99654.98;;;9.43;65.17
56582;BME280;42463;52.214;21.238;2023-04-26T04:53:47;99656.23;;;9.43;65.14
56582;BME280;42463;52.214;21.238;2023-04-26T04:55:50;99658.77;;;9.41;65.00
56582;BME280;42463;52.214;21.238;2023-04-26T04:57:53;99660.98;;;9.42;65.02
56582;BME280;42463;52.214;21.238;2023-04-26T04:59:58;99660.66;;;9.44;64.79
56582;BME280;42463;52.214;21.238;2023-04-26T05:02:06;99661.91;;;9.45;64.72
56582;BME280;42463;52.214;21.238;2023-04-26T05:04:09;99665.86;;;9.44;64.58
56582;BME280;42463;52.214;21.238;2023-04-26T05:06:13;99670.45;;;9.42;64.47
56582;BME280;42463;52.214;21.238;2023-04-26T05:08:16;99675.27;;;9.42;64.48
56582;BME280;42463;52.214;21.238;2023-04-26T05:10:19;99671.06;;;9.44;64.94
56582;BME280;42463;52.214;21.238;2023-04-26T05:12:22;99672.27;;;9.47;64.42
56582;BME280;42463;52.214;21.238;2023-04-26T05:14:25;99678.39;;;9.51;64.05
56582;BME280;42463;52.214;21.238;2023-04-26T05:16:28;99676.67;;;9.53;63.93
56582;BME280;42463;52.214;21.238;2023-04-26T05:18:31;99678.58;;;9.55;64.14
56582;BME280;42463;52.214;21.238;2023-04-26T05:20:34;99682.31;;;9.55;63.95
56582;BME280;42463;52.214;21.238;2023-04-26T05:22:36;99682.48;;;9.57;63.96
56582;BME280;42463;52.214;21.238;2023-04-26T05:24:41;99687.27;;;9.59;63.42
56582;BME280;42463;52.214;21.238;2023-04-26T05:26:44;99690.14;;;9.62;63.65
56582;BME280;42463;52.214;21.238;2023-04-26T05:29:07;99687.55;;;9.66;63.89
56582;BME280;42463;52.214;21.238;2023-04-26T05:31:22;99691.23;;;9.69;63.60
56582;BME280;42463;52.214;21.238;2023-04-26T05:34:01;99695.45;;;9.68;63.30
56582;BME280;42463;52.214;21.238;2023-04-26T05:36:09;99697.52;;;9.66;62.87
56582;BME280;42463;52.214;21.238;2023-04-26T05:38:12;99696.38;;;9.65;62.67
56582;BME280;42463;52.214;21.238;2023-04-26T05:40:15;99697.29;;;9.64;62.92
56582;BME280;42463;52.214;21.238;2023-04-26T05:42:18;99698.80;;;9.63;62.31
56582;BME280;42463;52.214;21.238;2023-04-26T05:44:21;99698.20;;;9.61;61.89
56582;BME280;42463;52.214;21.238;2023-04-26T05:46:24;99705.41;;;9.61;61.63
56582;BME280;42463;52.214;21.238;2023-04-26T05:48:26;99705.19;;;9.60;61.89
56582;BME280;42463;52.214;21.238;2023-04-26T05:50:31;99703.45;;;9.60;61.83
56582;BME280;42463;52.214;21.238;2023-04-26T05:52:34;99707.40;;;9.58;61.56
56582;BME280;42463;52.214;21.238;2023-04-26T05:54:37;99706.64;;;9.58;61.00
56582;BME280;42463;52.214;21.238;2023-04-26T05:56:40;99709.27;;;9.54;60.35
56582;BME280;42463;52.214;21.238;2023-04-26T05:58:43;99713.02;;;9.54;60.66
56582;BME280;42463;52.214;21.238;2023-04-26T06:00:45;99715.58;;;9.57;61.07
56582;BME280;42463;52.214;21.238;2023-04-26T06:02:48;99722.42;;;9.62;61.29
56582;BME280;42463;52.214;21.238;2023-04-26T06:04:53;99724.38;;;9.67;60.90
56582;BME280;42463;52.214;21.238;2023-04-26T06:06:56;99725.10;;;9.70;61.04
56582;BME280;42463;52.214;21.238;2023-04-26T06:08:59;99725.23;;;9.73;61.27
56582;BME280;42463;52.214;21.238;2023-04-26T06:11:02;99721.65;;;9.78;61.10
56582;BME280;42463;52.214;21.238;2023-04-26T06:13:04;99726.39;;;9.82;61.23
56582;BME280;42463;52.214;21.238;2023-04-26T06:15:11;99727.91;;;9.84;60.98
56582;BME280;42463;52.214;21.238;2023-04-26T06:17:14;99729.20;;;9.84;60.58
56582;BME280;42463;52.214;21.238;2023-04-26T06:19:18;99731.15;;;9.83;60.15
56582;BME280;42463;52.214;21.238;2023-04-26T06:21:21;99731.58;;;9.82;59.88
56582;BME280;42463;52.214;21.238;2023-04-26T06:23:24;99732.39;;;9.83;59.71
56582;BME280;42463;52.214;21.238;2023-04-26T06:25:27;99733.75;;;9.81;60.14
56582;BME280;42463;52.214;21.238;2023-04-26T06:27:31;99731.59;;;9.85;60.43
56582;BME280;42463;52.214;21.238;2023-04-26T06:29:35;99731.28;;;9.90;60.52
56582;BME280;42463;52.214;21.238;2023-04-26T06:31:38;99730.97;;;9.93;59.76
56582;BME280;42463;52.214;21.238;2023-04-26T06:33:41;99731.17;;;9.90;59.53
56582;BME280;42463;52.214;21.238;2023-04-26T06:35:43;99731.55;;;9.88;59.03
56582;BME280;42463;52.214;21.238;2023-04-26T06:37:47;99729.96;;;9.85;59.31
56582;BME280;42463;52.214;21.238;2023-04-26T06:39:50;99724.70;;;9.82;59.43
56582;BME280;42463;52.214;21.238;2023-04-26T06:41:53;99727.95;;;9.83;59.49
56582;BME280;42463;52.214;21.238;2023-04-26T06:44:02;99729.11;;;9.89;59.47
56582;BME280;42463;52.214;21.238;2023-04-26T06:46:07;99726.69;;;9.92;59.23
56582;BME280;42463;52.214;21.238;2023-04-26T06:48:10;99728.43;;;9.97;58.81
56582;BME280;42463;52.214;21.238;2023-04-26T06:50:13;99726.49;;;10.03;59.11
56582;BME280;42463;52.214;21.238;2023-04-26T06:52:16;99727.81;;;10.10;58.61
56582;BME280;42463;52.214;21.238;2023-04-26T06:54:19;99726.15;;;10.18;58.56
56582;BME280;42463;52.214;21.238;2023-04-26T06:56:22;99723.80;;;10.26;58.51
56582;BME280;42463;52.214;21.238;2023-04-26T06:58:25;99721.54;;;10.36;58.44
56582;BME280;42463;52.214;21.238;2023-04-26T07:00:28;99722.44;;;10.47;58.71
56582;BME280;42463;52.214;21.238;2023-04-26T07:02:31;99724.67;;;10.57;58.42
56582;BME280;42463;52.214;21.238;2023-04-26T07:04:34;99725.75;;;10.66;57.77
56582;BME280;42463;52.214;21.238;2023-04-26T07:06:38;99727.38;;;10.73;57.77
56582;BME280;42463;52.214;21.238;2023-04-26T07:08:40;99728.02;;;10.80;57.45
56582;BME280;42463;52.214;21.238;2023-04-26T07:10:43;99729.65;;;10.84;57.04
56582;BME280;42463;52.214;21.238;2023-04-26T07:12:46;99733.55;;;10.91;56.57
56582;BME280;42463;52.214;21.238;2023-04-26T07:14:48;99729.79;;;10.97;56.03
56582;BME280;42463;52.214;21.238;2023-04-26T07:16:51;99729.08;;;11.03;56.08
56582;BME280;42463;52.214;21.238;2023-04-26T07:18:54;99726.14;;;11.07;55.51
56582;BME280;42463;52.214;21.238;2023-04-26T07:20:59;99732.86;;;11.11;55.59
56582;BME280;42463;52.214;21.238;2023-04-26T07:23:02;99731.55;;;11.14;55.24
56582;BME280;42463;52.214;21.238;2023-04-26T07:25:06;99727.81;;;11.14;53.62
56582;BME280;42463;52.214;21.238;2023-04-26T07:27:09;99734.23;;;11.14;52.55
56582;BME280;42463;52.214;21.238;2023-04-26T07:29:12;99734.16;;;11.15;52.44
56582;BME280;42463;52.214;21.238;2023-04-26T07:31:15;99732.27;;;11.15;52.62
56582;BME280;42463;52.214;21.238;2023-04-26T07:33:18;99735.27;;;11.23;53.01
56582;BME280;42463;52.214;21.238;2023-04-26T07:35:21;99737.81;;;11.33;53.29
56582;BME280;42463;52.214;21.238;2023-04-26T07:37:24;99734.11;;;11.42;52.43
56582;BME280;42463;52.214;21.238;2023-04-26T07:39:26;99741.55;;;11.47;50.95
56582;BME280;42463;52.214;21.238;2023-04-26T07:41:29;99737.30;;;11.54;51.17
56582;BME280;42463;52.214;21.238;2023-04-26T07:43:34;99737.48;;;11.59;51.10
56582;BME280;42463;52.214;21.238;2023-04-26T07:45:37;99741.55;;;11.63;49.98
56582;BME280;42463;52.214;21.238;2023-04-26T07:47:40;99743.18;;;11.62;49.79
56582;BME280;42463;52.214;21.238;2023-04-26T07:49:43;99745.95;;;11.64;49.22
56582;BME280;42463;52.214;21.238;2023-04-26T07:51:46;99747.66;;;11.67;49.05
56582;BME280;42463;52.214;21.238;2023-04-26T07:53:48;99747.06;;;11.68;48.17
56582;BME280;42463;52.214;21.238;2023-04-26T07:55:51;99752.59;;;11.72;48.58
56582;BME280;42463;52.214;21.238;2023-04-26T07:57:54;99753.13;;;11.82;48.84
56582;BME280;42463;52.214;21.238;2023-04-26T07:59:57;99749.33;;;11.93;49.88
56582;BME280;42463;52.214;21.238;2023-04-26T08:02:00;99749.23;;;12.00;48.40
56582;BME280;42463;52.214;21.238;2023-04-26T08:04:03;99756.66;;;12.05;48.31
56582;BME280;42463;52.214;21.238;2023-04-26T08:06:06;99755.77;;;12.08;47.82
56582;BME280;42463;52.214;21.238;2023-04-26T08:08:09;99760.33;;;12.10;47.24
56582;BME280;42463;52.214;21.238;2023-04-26T08:10:13;99760.70;;;12.12;47.33
56582;BME280;42463;52.214;21.238;2023-04-26T08:12:17;99760.77;;;12.17;47.68
56582;BME280;42463;52.214;21.238;2023-04-26T08:14:21;99761.83;;;12.22;47.42
56582;BME280;42463;52.214;21.238;2023-04-26T08:16:23;99759.46;;;12.27;47.19
56582;BME280;42463;52.214;21.238;2023-04-26T08:18:26;99761.56;;;12.30;46.86
56582;BME280;42463;52.214;21.238;2023-04-26T08:20:29;99758.91;;;12.28;45.80
56582;BME280;42463;52.214;21.238;2023-04-26T08:22:32;99760.74;;;12.31;46.40
56582;BME280;42463;52.214;21.238;2023-04-26T08:24:34;99755.66;;;12.35;46.85
56582;BME280;42463;52.214;21.238;2023-04-26T08:26:37;99760.02;;;12.41;46.75
56582;BME280;42463;52.214;21.238;2023-04-26T08:28:40;99756.89;;;12.46;46.44
56582;BME280;42463;52.214;21.238;2023-04-26T08:30:43;99760.10;;;12.46;45.57
56582;BME280;42463;52.214;21.238;2023-04-26T08:32:45;99767.02;;;12.43;45.06
56582;BME280;42463;52.214;21.238;2023-04-26T08:34:48;99764.87;;;12.40;45.16
56582;BME280;42463;52.214;21.238;2023-04-26T08:36:51;99764.41;;;12.36;44.58
56582;BME280;42463;52.214;21.238;2023-04-26T08:38:54;99768.64;;;12.30;44.29
56582;BME280;42463;52.214;21.238;2023-04-26T08:40:59;99773.34;;;12.26;44.10
56582;BME280;42463;52.214;21.238;2023-04-26T08:43:03;99773.48;;;12.22;44.40
56582;BME280;42463;52.214;21.238;2023-04-26T08:45:08;99780.45;;;12.20;44.22
56582;BME280;42463;52.214;21.238;2023-04-26T08:47:16;99778.61;;;12.16;44.29
56582;BME280;42463;52.214;21.238;2023-04-26T08:49:28;99783.03;;;12.14;44.93
56582;BME280;42463;52.214;21.238;2023-04-26T08:51:34;99779.27;;;12.14;45.06
56582;BME280;42463;52.214;21.238;2023-04-26T08:53:38;99781.11;;;12.17;45.06
56582;BME280;42463;52.214;21.238;2023-04-26T08:55:47;99780.39;;;12.21;44.94
56582;BME280;42463;52.214;21.238;2023-04-26T08:57:50;99778.45;;;12.27;45.40
56582;BME280;42463;52.214;21.238;2023-04-26T08:59:55;99779.69;;;12.37;45.23
56582;BME280;42463;52.214;21.238;2023-04-26T09:02:00;99777.36;;;12.45;45.10
56582;BME280;42463;52.214;21.238;2023-04-26T09:04:04;99775.54;;;12.47;43.95
56582;BME280;42463;52.214;21.238;2023-04-26T09:06:08;99779.02;;;12.48;44.33
56582;BME280;42463;52.214;21.238;2023-04-26T09:08:14;99780.94;;;12.47;43.68
56582;BME280;42463;52.214;21.238;2023-04-26T09:10:19;99784.34;;;12.42;43.02
56582;BME280;42463;52.214;21.238;2023-04-26T09:12:22;99785.30;;;12.37;42.90
56582;BME280;42463;52.214;21.238;2023-04-26T09:14:25;99788.31;;;12.33;43.27
56582;BME280;42463;52.214;21.238;2023-04-26T09:16:34;99796.30;;;12.25;42.72
56582;BME280;42463;52.214;21.238;2023-04-26T09:18:47;99794.92;;;12.17;42.80
56582;BME280;42463;52.214;21.238;2023-04-26T09:21:05;99801.98;;;12.09;43.09
56582;BME280;42463;52.214;21.238;2023-04-26T09:23:09;99799.40;;;12.04;43.73
56582;BME280;42463;52.214;21.238;2023-04-26T09:25:14;99801.77;;;11.97;43.20
56582;BME280;42463;52.214;21.238;2023-04-26T09:27:17;99808.33;;;11.88;43.93
56582;BME280;42463;52.214;21.238;2023-04-26T09:29:20;99806.02;;;11.83;44.38
56582;BME280;42463;52.214;21.238;2023-04-26T09:31:36;99806.23;;;11.82;44.44
56582;BME280;42463;52.214;21.238;2023-04-26T09:33:57;99808.73;;;11.80;43.38
56582;BME280;42463;52.214;21.238;2023-04-26T09:36:10;99806.92;;;11.74;43.37
56582;BME280;42463;52.214;21.238;2023-04-26T09:38:15;99802.94;;;11.65;43.48
56582;BME280;42463;52.214;21.238;2023-04-26T09:40:19;99807.56;;;11.63;43.83
56582;BME280;42463;52.214;21.238;2023-04-26T09:42:22;99808.66;;;11.61;43.92
56582;BME280;42463;52.214;21.238;2023-04-26T09:44:25;99809.85;;;11.61;44.08
56582;BME280;42463;52.214;21.238;2023-04-26T09:46:27;99805.62;;;11.58;44.84
56582;BME280;42463;52.214;21.238;2023-04-26T09:48:31;99808.67;;;11.54;44.63
56582;BME280;42463;52.214;21.238;2023-04-26T09:50:38;99806.30;;;11.46;44.96
56582;BME280;42463;52.214;21.238;2023-04-26T09:52:44;99813.13;;;11.42;45.62
56582;BME280;42463;52.214;21.238;2023-04-26T09:54:48;99813.52;;;11.36;45.08
56582;BME280;42463;52.214;21.238;2023-04-26T09:56:59;99812.27;;;11.33;45.19
56582;BME280;42463;52.214;21.238;2023-04-26T09:59:02;99815.48;;;11.28;44.93
56582;BME280;42463;52.214;21.238;2023-04-26T10:01:07;99813.64;;;11.27;45.27
56582;BME280;42463;52.214;21.238;2023-04-26T10:03:11;99817.11;;;11.29;45.86
56582;BME280;42463;52.214;21.238;2023-04-26T10:05:15;99814.02;;;11.28;45.41
56582;BME280;42463;52.214;21.238;2023-04-26T10:07:21;99818.80;;;11.25;45.32
56582;BME280;42463;52.214;21.238;2023-04-26T10:09:24;99817.71;;;11.27;45.20
56582;BME280;42463;52.214;21.238;2023-04-26T10:11:29;99819.55;;;11.25;44.88
56582;BME280;42463;52.214;21.238;2023-04-26T10:13:32;99821.02;;;11.26;45.45
56582;BME280;42463;52.214;21.238;2023-04-26T10:15:34;99818.95;;;11.29;45.67
56582;BME280;42463;52.214;21.238;2023-04-26T10:17:38;99813.91;;;11.32;44.87
56582;BME280;42463;52.214;21.238;2023-04-26T10:19:42;99815.64;;;11.37;45.23
56582;BME280;42463;52.214;21.238;2023-04-26T10:21:46;99818.19;;;11.41;44.31
56582;BME280;42463;52.214;21.238;2023-04-26T10:23:50;99819.33;;;11.44;44.18
56582;BME280;42463;52.214;21.238;2023-04-26T10:25:53;99818.52;;;11.46;43.71
56582;BME280;42463;52.214;21.238;2023-04-26T10:27:58;99824.01;;;11.47;43.50
56582;BME280;42463;52.214;21.238;2023-04-26T10:30:09;99823.30;;;11.45;42.85
56582;BME280;42463;52.214;21.238;2023-04-26T10:32:13;99827.70;;;11.44;42.78
56582;BME280;42463;52.214;21.238;2023-04-26T10:34:20;99828.89;;;11.44;42.99
56582;BME280;42463;52.214;21.238;2023-04-26T10:36:23;99831.70;;;11.43;42.70
56582;BME280;42463;52.214;21.238;2023-04-26T10:38:25;99831.31;;;11.43;43.79
56582;BME280;42463;52.214;21.238;2023-04-26T10:40:31;99825.42;;;11.47;43.26
56582;BME280;42463;52.214;21.238;2023-04-26T10:42:34;99830.09;;;11.50;42.84
56582;BME280;42463;52.214;21.238;2023-04-26T10:44:39;99835.40;;;11.53;43.08
56582;BME280;42463;52.214;21.238;2023-04-26T10:46:49;99839.80;;;11.56;42.81
56582;BME280;42463;52.214;21.238;2023-04-26T10:48:55;99841.64;;;11.59;43.09
56582;BME280;42463;52.214;21.238;2023-04-26T10:51:10;99846.15;;;11.59;42.97
56582;BME280;42463;52.214;21.238;2023-04-26T10:53:13;99841.42;;;11.59;42.39
56582;BME280;42463;52.214;21.238;2023-04-26T10:55:37;99845.49;;;11.59;42.45